Tamworth Airport

Airport
ICAO code: 
YSTW
IATA Code: 
TMW
Summary
ICAO Region: 
APAC
Territory: 
Location: 
Tamworth, New South Wales
Serving: 
Tamworth
Elevation: 
1334 ft
Coordinates: 
Aerial View: 
31° 4' 40.816" S, 150° 50' 44.895" E
Airport WX: 
Cumulonimbus
Metar
Observation
YSTW 020000Z AUTO 19007KT 9999 // NCD 26/17 Q1016
Station
Tamworth Airport
Date/Time
2021-12-02 00:00:00
Wind direction
190°
Wind speed
07 kts
Lowest cloud amount
no clouds detected
Temperature
26°C
Dew point
17°C
Humidity
57%
QNH
1016 hPa
Weather condition
n/a

A regional airport serving Tamworth, a city in the Australian state of New South Wales. It is located 10 km from the town centre.

Climatology

Humid “subtropical” climate (Köppen climate classification Cfa) - characterized by hot, humid summers and cool winters. Significant amounts of precipitation occur in all seasons in most areas. Most summer rainfall occurs during thunderstorms.

Runways

Designator Length Width Surface Rops
6/24 842 30 GRS Yes/Yes
18/36 1020 30 GRS Yes/Yes
12R/30L 1110 18 ASP Yes/Yes
12L/30R 2200 45 ASP Yes/Yes
Airport map: 
Aerial View: 

Accidents and Serious Incidents at or in the vicinity of YSTW

SKYbrary Partners:

Safety knowledge contributed by: